createdAt,value
2018-12-09T00:00:40.794Z,21.28
2018-12-09T00:05:49.865Z,23.81
2018-12-09T00:10:59.362Z,22.82
2018-12-09T00:16:08.606Z,23.32
2018-12-09T00:21:18.017Z,27.56
2018-12-09T00:26:27.209Z,26.71
2018-12-09T00:31:36.598Z,23.85
2018-12-09T00:36:45.682Z,19.91
2018-12-09T00:41:55.006Z,25.47
2018-12-09T00:47:04.113Z,24.10
2018-12-09T00:52:13.668Z,24.75
2018-12-09T00:57:22.939Z,25.20
2018-12-09T01:02:32.348Z,20.68
2018-12-09T01:07:41.506Z,25.99
2018-12-09T01:12:50.884Z,20.77
2018-12-09T01:17:59.961Z,26.43
2018-12-09T01:23:09.366Z,23.16
2018-12-09T01:28:18.473Z,21.48
2018-12-09T01:33:27.821Z,21.11
2018-12-09T01:38:36.888Z,18.68
2018-12-09T01:43:46.213Z,22.47
2018-12-09T01:48:55.378Z,20.38
2018-12-09T01:54:04.637Z,17.21
2018-12-09T01:59:13.774Z,15.31
2018-12-09T02:04:23.182Z,20.50
2018-12-09T02:09:32.383Z,24.90
2018-12-09T02:14:41.645Z,18.32
2018-12-09T02:19:50.783Z,19.23
2018-12-09T02:25:00.102Z,23.55
2018-12-09T02:30:09.218Z,18.19
2018-12-09T02:35:18.696Z,20.70
2018-12-09T02:40:27.721Z,16.17
2018-12-09T02:45:37.091Z,16.49
2018-12-09T02:50:46.197Z,14.01
2018-12-09T02:55:55.248Z,17.20
2018-12-09T03:01:04.392Z,17.39
2018-12-09T03:06:13.904Z,17.11
2018-12-09T03:11:23.011Z,16.92
2018-12-09T03:16:32.403Z,20.51
2018-12-09T03:21:41.526Z,19.03
2018-12-09T03:26:50.892Z,19.23
2018-12-09T03:31:59.973Z,18.30
2018-12-09T03:37:09.320Z,18.84
2018-12-09T03:42:18.639Z,17.62
2018-12-09T03:47:28.012Z,19.87
2018-12-09T03:52:37.134Z,25.34
2018-12-09T03:57:46.457Z,17.20
2018-12-09T04:02:55.711Z,22.64
2018-12-09T04:08:05.050Z,18.66
2018-12-09T04:13:14.187Z,25.03
2018-12-09T04:18:23.583Z,22.70
2018-12-09T04:23:32.942Z,23.22
2018-12-09T04:28:42.233Z,22.13
2018-12-09T04:33:51.344Z,22.73
2018-12-09T04:39:00.769Z,23.33
2018-12-09T04:44:09.849Z,20.02
2018-12-09T04:49:19.243Z,23.63
2018-12-09T04:54:28.331Z,23.31
2018-12-09T04:59:37.828Z,25.61
2018-12-09T05:04:47.190Z,20.98
2018-12-09T05:09:56.527Z,20.45
2018-12-09T05:15:05.618Z,16.61
2018-12-09T05:20:15.044Z,24.32
2018-12-09T05:25:24.213Z,21.80
2018-12-09T05:30:33.671Z,19.42
2018-12-09T05:35:42.786Z,21.13
2018-12-09T05:40:52.121Z,27.77
2018-12-09T05:46:01.226Z,26.94
2018-12-09T05:51:10.768Z,21.50
2018-12-09T05:56:19.909Z,18.84
2018-12-09T06:01:29.384Z,20.01
2018-12-09T06:06:40.230Z,20.21
2018-12-09T06:11:47.997Z,23.46
2018-12-09T06:16:57.092Z,20.17
2018-12-09T06:22:06.364Z,19.36
2018-12-09T06:27:15.440Z,17.63
2018-12-09T06:32:24.874Z,20.59
2018-12-09T06:37:33.984Z,17.61
2018-12-09T06:42:43.367Z,17.77
2018-12-09T06:47:52.495Z,19.22
2018-12-09T06:53:02.006Z,21.33
2018-12-09T06:58:11.097Z,19.47
2018-12-09T07:03:20.432Z,22.11
2018-12-09T07:08:29.517Z,26.42
2018-12-09T07:13:38.874Z,22.45
2018-12-09T07:18:48.040Z,22.65
2018-12-09T07:23:57.391Z,18.99
2018-12-09T07:29:06.534Z,21.81
2018-12-09T07:34:15.883Z,25.27
2018-12-09T07:39:25.117Z,23.49
2018-12-09T07:44:34.484Z,21.60
2018-12-09T07:49:43.636Z,22.59
2018-12-09T07:54:53.055Z,17.87
2018-12-09T08:00:02.136Z,15.42
2018-12-09T08:05:11.529Z,18.57
2018-12-09T08:10:20.661Z,18.94
2018-12-09T08:15:29.926Z,18.20
2018-12-09T08:20:39.058Z,20.56
2018-12-09T08:25:48.409Z,19.17
2018-12-09T08:30:57.656Z,17.11
2018-12-09T08:36:07.422Z,15.63
2018-12-09T08:41:16.679Z,7.99
2018-12-09T08:46:25.923Z,8.24
2018-12-09T08:51:35.022Z,6.34
2018-12-09T08:56:44.415Z,7.91
2018-12-09T09:01:53.611Z,9.49
2018-12-09T09:07:02.730Z,8.83
2018-12-09T09:12:11.812Z,10.55
2018-12-09T09:17:21.122Z,11.12
2018-12-09T09:22:30.240Z,13.19
2018-12-09T09:27:39.557Z,21.61
2018-12-09T09:32:48.670Z,12.23
2018-12-09T09:37:57.949Z,13.10
2018-12-09T09:43:07.084Z,11.06
2018-12-09T09:48:16.518Z,11.96
2018-12-09T09:53:25.720Z,13.77
2018-12-09T09:58:35.384Z,8.52
2018-12-09T10:03:44.630Z,9.36
2018-12-09T10:08:54.073Z,8.95
2018-12-09T10:14:03.345Z,11.17
2018-12-09T10:19:12.755Z,8.09
2018-12-09T10:24:21.876Z,8.71
2018-12-09T10:29:31.173Z,8.05
2018-12-09T10:34:40.286Z,8.44
2018-12-09T10:39:49.957Z,9.59
2018-12-09T10:44:59.090Z,9.14
2018-12-09T10:50:08.703Z,9.40
2018-12-09T10:55:17.813Z,8.29
2018-12-09T11:00:27.180Z,11.32
2018-12-09T11:05:36.312Z,7.32
2018-12-09T11:10:45.694Z,6.39
2018-12-09T11:15:54.773Z,8.16
2018-12-09T11:21:04.161Z,9.86
2018-12-09T11:26:13.290Z,13.18
2018-12-09T11:31:22.721Z,10.82
2018-12-09T11:36:31.801Z,8.47
2018-12-09T11:41:41.244Z,9.60
2018-12-09T11:46:50.391Z,9.60
2018-12-09T11:51:59.671Z,8.75
2018-12-09T11:57:08.790Z,12.07
2018-12-09T12:02:20.011Z,12.80
2018-12-09T12:07:26.841Z,13.48
2018-12-09T12:12:36.254Z,9.47
2018-12-09T12:17:45.491Z,8.59
2018-12-09T12:22:54.908Z,6.76
2018-12-09T12:28:04.068Z,12.50
2018-12-09T12:33:13.372Z,13.26
2018-12-09T12:38:22.507Z,11.95
2018-12-09T12:43:31.893Z,10.56
2018-12-09T12:48:41.003Z,14.39
2018-12-09T12:53:50.409Z,11.61
2018-12-09T12:58:59.517Z,13.92
2018-12-09T13:04:08.979Z,13.67
2018-12-09T13:09:18.104Z,11.11
2018-12-09T13:14:27.509Z,7.24
2018-12-09T13:19:36.720Z,14.25
2018-12-09T13:24:45.991Z,17.78
2018-12-09T13:29:55.130Z,18.12
2018-12-09T13:35:04.477Z,18.25
2018-12-09T13:40:13.633Z,20.21
2018-12-09T13:45:22.990Z,20.62
2018-12-09T13:50:32.233Z,23.34
2018-12-09T13:55:41.585Z,17.14
2018-12-09T14:00:50.797Z,16.85
2018-12-09T14:05:58.671Z,19.25
2018-12-09T14:11:07.817Z,15.59
2018-12-09T14:16:17.297Z,15.05
2018-12-09T14:21:26.470Z,13.43
2018-12-09T14:26:35.909Z,18.21
2018-12-09T14:31:45.208Z,16.78
2018-12-09T14:36:56.430Z,18.47
2018-12-09T14:42:03.411Z,21.73
2018-12-09T14:47:12.974Z,10.44
2018-12-09T14:52:22.158Z,12.41
2018-12-09T14:57:31.589Z,9.67
2018-12-09T15:02:40.751Z,17.42
2018-12-09T15:07:50.111Z,14.81
2018-12-09T15:12:59.717Z,19.72
2018-12-09T15:18:09.165Z,16.26
2018-12-09T15:23:30.587Z,14.50
2018-12-09T15:28:20.543Z,19.31
2018-12-09T15:38:34.847Z,12.05
2018-12-09T15:43:44.032Z,17.47
2018-12-09T15:48:53.568Z,12.88
2018-12-09T15:54:02.808Z,19.06
2018-12-09T15:59:12.333Z,18.90
2018-12-09T16:04:42.794Z,21.29
2018-12-09T16:09:22.203Z,16.67
2018-12-09T16:14:31.352Z,17.29
2018-12-09T16:19:40.673Z,27.04
2018-12-09T16:24:49.778Z,20.83
2018-12-09T16:30:01.947Z,13.26
2018-12-09T16:35:01.028Z,9.97
2018-12-09T16:40:10.423Z,17.42
2018-12-09T16:45:18.078Z,13.17
2018-12-09T16:50:27.574Z,15.44
2018-12-09T16:55:47.534Z,15.46
2018-12-09T17:00:46.869Z,13.48
2018-12-09T17:05:56.013Z,16.65
2018-12-09T17:11:05.499Z,17.68
2018-12-09T17:16:14.755Z,15.76
2018-12-09T17:21:24.447Z,10.47
2018-12-09T17:26:33.642Z,11.27
2018-12-09T17:31:43.064Z,15.42
2018-12-09T17:36:52.310Z,11.51
2018-12-09T17:42:00.243Z,18.53
2018-12-09T17:47:09.495Z,23.18
2018-12-09T17:52:18.929Z,22.28
2018-12-09T17:57:28.122Z,20.76
2018-12-09T18:02:37.689Z,17.86
2018-12-09T18:07:46.947Z,16.32
2018-12-09T18:12:56.201Z,19.04
2018-12-09T18:18:05.320Z,15.87
2018-12-09T18:23:14.697Z,19.33
2018-12-09T18:28:23.805Z,14.68
2018-12-09T18:33:33.126Z,11.30
2018-12-09T18:38:42.362Z,9.76
2018-12-09T18:43:51.978Z,9.90
2018-12-09T18:49:01.118Z,9.77
2018-12-09T18:54:10.598Z,10.08
2018-12-09T18:59:19.719Z,11.03
2018-12-09T19:04:29.015Z,10.76
2018-12-09T19:09:38.160Z,15.11
2018-12-09T19:14:47.497Z,20.98
2018-12-09T19:19:56.600Z,14.17
2018-12-09T19:25:05.993Z,20.57
2018-12-09T19:30:15.092Z,20.78
2018-12-09T19:35:24.414Z,18.78
2018-12-09T19:40:32.367Z,15.21
2018-12-09T19:45:41.669Z,16.41
2018-12-09T19:50:51.162Z,22.05
2018-12-09T19:56:00.552Z,26.01
2018-12-09T20:01:09.741Z,12.25
2018-12-09T20:06:19.223Z,14.63
2018-12-09T20:11:28.489Z,13.65
2018-12-09T20:16:37.861Z,15.40
2018-12-09T20:21:46.970Z,21.38
2018-12-09T20:26:56.382Z,19.60
2018-12-09T20:32:05.533Z,20.29
2018-12-09T20:37:15.017Z,23.14
2018-12-09T20:42:24.342Z,15.01
2018-12-09T20:47:33.778Z,22.36
2018-12-09T20:52:43.487Z,22.23
2018-12-09T20:57:52.882Z,12.59
2018-12-09T21:03:02.058Z,19.80
2018-12-09T21:08:11.260Z,18.11
2018-12-09T21:13:20.373Z,17.68
2018-12-09T21:18:29.736Z,15.30
2018-12-09T21:23:38.919Z,19.37
2018-12-09T21:28:48.342Z,15.11
2018-12-09T21:33:57.451Z,14.12
2018-12-09T21:39:06.802Z,15.02
2018-12-09T21:44:15.969Z,17.86
2018-12-09T21:49:25.403Z,20.23
2018-12-09T21:54:34.578Z,18.82
2018-12-09T21:59:43.834Z,24.40
2018-12-09T22:04:52.986Z,21.18
2018-12-09T22:10:02.270Z,19.16
2018-12-09T22:15:11.386Z,8.78
2018-12-09T22:20:20.628Z,7.13
2018-12-09T22:25:29.743Z,9.01
2018-12-09T22:30:38.999Z,10.52
2018-12-09T22:35:48.115Z,14.88
2018-12-09T22:40:57.470Z,16.98
2018-12-09T22:46:06.605Z,18.21
2018-12-09T22:51:15.982Z,23.26
2018-12-09T22:56:25.104Z,17.70
2018-12-09T23:01:34.445Z,18.58
2018-12-09T23:06:43.563Z,16.15
2018-12-09T23:11:52.907Z,14.50
2018-12-09T23:17:02.017Z,20.18
2018-12-09T23:22:11.398Z,20.74
2018-12-09T23:27:20.496Z,23.09
2018-12-09T23:32:29.728Z,11.55
2018-12-09T23:37:38.844Z,10.62
2018-12-09T23:42:48.205Z,15.88
2018-12-09T23:47:57.433Z,13.52
2018-12-09T23:53:06.781Z,14.87
2018-12-09T23:58:15.935Z,16.79
